Latest Weather Observations for Fitzroy Crossing

IDW60801

Issued at 7:02 pm WST Saturday 30 April 2016 (issued every 30 minutes, with the page automatically refreshed every 10 minutes)

About weather observations | Map of weather stations | Latest weather observations for WA | Other Formats
Station Details ID: 003093 Name: FITZROY CROSSING AERO Lat: -18.18 Lon: 125.56 Height: 114.5 m
Data from the previous 72 hours. | See also: Recent months at Fitzroy Crossing
Date/Time
WST
Temp
°C
App
Temp
°C
Dew
Point
Rel
Hum
%
Delta-T
°C
Wind Press
QNH
hPa
Press
MSL
hPa
Rain
since 9 am
mm
Dir
 
Spd
km/h
Gust
km/h
Spd
kts
Gust
kts
30/07:00pm 29.7 28.8 11.2 31 10.7 NNW 7 9 4 5 1011.1 1010.4 0.0
30/06:30pm 30.1 29.1 11.1 31 11.0 NNW 7 9 4 5 1010.8 1010.1 0.0
30/06:00pm 31.8 31.0 11.0 28 12.1 N 6 7 3 4 1010.6 1009.9 0.0
30/05:30pm 32.9 31.9 10.9 26 12.8 NNW 7 9 4 5 1010.3 1009.6 0.0
30/05:00pm 35.1 33.5 10.2 22 14.5 NNW 9 11 5 6 1010.0 1009.3 0.0
30/04:30pm 36.1 34.3 9.6 20 15.4 NNE 9 15 5 8 1009.8 1009.1 0.0
30/04:00pm 36.9 36.2 10.2 20 15.7 ENE 4 9 2 5 1009.5 1008.7 0.0
30/03:30pm 37.0 36.2 9.6 19 16.0 SSW 4 11 2 6 1009.3 1008.5 0.0
30/03:00pm 37.7 36.1 10.1 19 16.3 E 9 17 5 9 1009.2 1008.4 0.0
30/02:30pm 37.6 35.2 10.0 19 16.2 ESE 13 20 7 11 1009.3 1008.5 0.0
30/02:00pm 37.1 35.3 9.6 19 16.0 E 9 17 5 9 1009.6 1008.9 0.0
30/01:30pm 37.8 35.8 10.2 19 16.3 SSE 11 19 6 10 1010.0 1009.3 0.0
30/01:00pm 37.2 36.1 10.5 20 15.8 SSE 7 15 4 8 1010.4 1009.7 0.0
30/12:30pm 37.0 34.7 10.3 20 15.7 SSW 13 26 7 14 1010.8 1010.1 0.0
30/12:00pm 36.3 34.0 10.5 21 15.2 S 13 20 7 11 1011.3 1010.6 0.0
30/11:30am 36.1 33.8 10.3 21 15.1 SW 13 20 7 11 1011.7 1011.0 0.0
30/11:00am 35.4 33.1 10.4 22 14.6 SSW 13 20 7 11 1012.3 1011.6 0.0
30/10:30am 35.1 32.4 10.2 22 14.5 SSW 15 24 8 13 1012.9 1012.2 0.0
30/10:00am 34.5 31.8 10.4 23 14.1 S 15 20 8 11 1013.3 1012.6 0.0
30/09:30am 33.8 31.7 11.0 25 13.4 SSW 13 20 7 11 1013.5 1012.8 0.0
30/09:00am 32.1 31.1 12.3 29 11.8 WSW 9 17 5 9 1013.6 1012.9 0.0
30/08:30am 30.3 29.7 13.6 36 10.1 WNW 9 13 5 7 1013.6 1012.9 0.0
30/08:00am 28.9 28.2 14.3 40 8.8 W 11 15 6 8 1013.5 1012.8 0.0
30/07:30am 27.2 26.4 15.2 47 7.3 WNW 13 17 7 9 1013.3 1012.6 0.0
30/07:00am 25.0 24.8 15.6 56 5.7 NNW 11 15 6 8 1013.2 1012.5 0.0
30/06:30am 22.4 22.3 15.0 63 4.4 NNW 9 11 5 6 1012.9 1012.2 0.0
30/06:00am 21.6 20.7 13.8 61 4.5 NW 11 13 6 7 1012.5 1011.8 0.0
30/05:30am 21.6 21.0 13.5 60 4.7 NNW 9 11 5 6 1012.3 1011.6 0.0
30/05:00am 21.8 21.1 13.2 58 5.0 WNW 9 11 5 6 1012.0 1011.3 0.0
30/04:30am 21.6 20.5 13.0 58 4.9 NW 11 15 6 8 1011.5 1010.8 0.0
30/04:00am 21.3 19.6 12.4 57 5.1 NW 13 15 7 8 1011.3 1010.6 0.0
30/03:30am 21.8 20.4 12.1 54 5.5 NW 11 13 6 7 1011.1 1010.4 0.0
30/03:00am 23.9 23.4 13.7 53 6.0 W 9 15 5 8 1010.9 1010.2 0.0
30/02:30am 23.1 22.8 12.7 52 6.0 NW 6 7 3 4 1010.8 1010.1 0.0
30/02:00am 23.3 22.6 12.0 49 6.4 NNW 7 9 4 5 1010.8 1010.1 0.0
30/01:30am 23.9 22.9 12.2 48 6.7 NNW 9 11 5 6 1010.8 1010.1 0.0
30/01:00am 25.0 23.0 12.6 46 7.2 NNW 15 17 8 9 1010.8 1010.1 0.0
30/12:30am 23.8 22.9 11.5 46 7.0 WNW 7 11 4 6 1010.8 1010.1 0.0
30/12:00am 24.4 23.8 11.7 45 7.2 NW 6 9 3 5 1010.9 1010.2 0.0
 
Date/Time
WST
Temp
°C
App
Temp
°C
Dew
Point
Rel
Hum
%
Delta-T
°C
Wind Press
QNH
hPa
Press
MSL
hPa
Rain
since 9 am
mm
Dir
 
Spd
km/h
Gust
km/h
Spd
kts
Gust
kts
29/11:30pm 24.2 23.0 11.5 45 7.2 NNW 9 13 5 7 1011.3 1010.6 0.0
29/11:00pm 25.5 25.5 12.4 44 7.6 WNW 4 7 2 4 1011.5 1010.8 0.0
29/10:30pm 24.7 23.6 12.0 45 7.3 N 9 11 5 6 1011.7 1011.0 0.0
29/10:00pm 24.9 24.6 11.5 43 7.6 NW 4 13 2 7 1011.8 1011.1 0.0
29/09:30pm 26.1 25.1 11.1 39 8.5 WNW 7 9 4 5 1011.9 1011.2 0.0
29/09:00pm 25.4 24.2 9.7 37 8.7 WNW 6 13 3 7 1012.1 1011.4 0.0
29/08:30pm 27.9 28.4 11.5 36 9.5 CALM 0 0 0 0 1012.1 1011.4 0.0
29/08:00pm 28.7 29.1 11.3 34 10.0 CALM 0 0 0 0 1012.0 1011.3 0.0
29/07:30pm 28.3 28.6 10.9 34 9.9 CALM 0 0 0 0 1011.8 1011.1 0.0
29/07:00pm 29.6 29.6 9.7 29 11.2 CALM 0 0 0 0 1011.5 1010.8 0.0
29/06:30pm 30.0 30.1 10.0 29 11.4 CALM 0 0 0 0 1011.3 1010.6 0.0
29/06:00pm 30.9 30.3 10.3 28 11.8 WNW 4 6 2 3 1011.1 1010.4 0.0
29/05:30pm 32.7 32.2 9.5 24 13.2 NW 2 6 1 3 1010.8 1010.1 0.0
29/05:00pm 34.8 33.1 8.5 20 14.9 NW 7 11 4 6 1010.5 1009.8 0.0
29/04:30pm 35.5 33.4 8.3 19 15.4 SW 9 17 5 9 1010.2 1009.5 0.0
29/04:00pm 36.4 34.3 8.3 18 16.0 WNW 9 13 5 7 1009.9 1009.2 0.0
29/03:30pm 37.1 35.1 8.8 18 16.3 W 9 20 5 11 1009.9 1009.2 0.0
29/03:00pm 36.6 34.5 8.4 18 16.1 WNW 9 17 5 9 1009.6 1008.9 0.0
29/02:30pm 36.9 33.9 7.8 17 16.5 WNW 13 20 7 11 1009.6 1008.9 0.0
29/02:00pm 36.9 34.9 8.7 18 16.2 SW 9 20 5 11 1009.5 1008.7 0.0
29/01:30pm 36.0 34.2 8.0 18 15.8 WNW 7 11 4 6 1009.7 1009.0 0.0
29/01:00pm 36.5 34.4 8.4 18 16.1 SW 9 19 5 10 1009.9 1009.2 0.0
29/12:30pm 36.3 34.2 8.2 18 16.0 SW 9 20 5 11 1010.4 1009.7 0.0
29/12:00pm 36.4 33.5 8.3 18 16.0 WSW 13 20 7 11 1011.0 1010.3 0.0
29/11:30am 35.3 32.6 8.9 20 15.1 SW 13 22 7 12 1011.5 1010.8 0.0
29/11:00am 34.6 32.3 9.1 21 14.6 S 11 20 6 11 1011.9 1011.2 0.0
29/10:30am 34.0 31.2 8.6 21 14.4 S 13 19 7 10 1012.5 1011.8 0.0
29/10:00am 33.3 30.2 8.7 22 13.9 S 15 20 8 11 1013.0 1012.3 0.0
29/09:30am 32.6 31.0 11.7 28 12.3 SW 11 15 6 8 1013.3 1012.6 0.0
29/09:00am 31.8 31.2 11.6 29 11.9 S 6 13 3 7 1013.6 1012.9 0.0
29/08:30am 30.2 29.3 12.6 34 10.4 W 9 17 5 9 1013.5 1012.8 0.0
29/08:00am 28.8 28.4 14.2 40 8.8 NW 9 13 5 7 1013.4 1012.7 0.0
29/07:30am 26.7 28.6 15.7 51 6.7 CALM 0 0 0 0 1013.0 1012.3 0.0
29/07:00am 24.8 25.7 16.2 58 5.3 NE 6 7 3 4 1012.7 1012.0 0.0
29/06:30am 21.3 21.3 15.2 68 3.6 NE 9 11 5 6 1012.6 1011.9 0.0
29/06:00am 21.0 20.6 14.2 65 4.0 NNE 9 11 5 6 1012.3 1011.6 0.0
29/05:30am 21.6 21.2 15.2 67 3.8 N 11 13 6 7 1011.9 1011.2 0.0
29/05:00am 21.1 19.8 13.8 63 4.2 N 13 13 7 7 1011.4 1010.7 0.0
29/04:30am 21.7 20.8 12.5 56 5.2 NW 9 13 5 7 1011.1 1010.4 0.0
29/04:00am 21.9 20.6 11.3 51 5.9 NW 9 11 5 6 1010.8 1010.1 0.0
29/03:30am 22.3 20.9 10.8 48 6.4 NW 9 11 5 6 1010.6 1009.9 0.0
29/03:00am 22.3 21.0 9.8 45 6.8 NW 7 9 4 5 1010.5 1009.8 0.0
29/02:30am 22.1 20.3 9.3 44 6.9 N 9 11 5 6 1010.5 1009.8 0.0
29/02:00am 22.2 20.2 8.7 42 7.2 N 9 11 5 6 1010.4 1009.7 0.0
29/01:30am 23.1 21.4 8.4 39 7.8 NNW 7 11 4 6 1010.5 1009.8 0.0
29/01:00am 23.5 21.0 8.0 37 8.2 NW 11 13 6 7 1010.5 1009.8 0.0
29/12:30am 23.7 20.8 8.2 37 8.3 NW 13 19 7 10 1010.7 1010.0 0.0
29/12:00am 22.3 19.9 8.8 42 7.2 NNW 11 17 6 9 1010.6 1009.9 0.0
 
Date/Time
WST
Temp
°C
App
Temp
°C
Dew
Point
Rel
Hum
%
Delta-T
°C
Wind Press
QNH
hPa
Press
MSL
hPa
Rain
since 9 am
mm
Dir
 
Spd
km/h
Gust
km/h
Spd
kts
Gust
kts
28/11:30pm 22.7 20.3 8.8 41 7.4 NNW 11 13 6 7 1010.5 1009.8 0.0
28/11:00pm 23.4 21.7 8.3 38 8.1 NNW 7 9 4 5 1010.7 1010.0 0.0
28/10:30pm 24.6 22.4 7.7 34 9.0 NNW 9 9 5 5 1010.9 1010.2 0.0
28/10:00pm 24.7 23.1 7.8 34 9.0 N 6 7 3 4 1011.1 1010.4 0.0
28/09:30pm 24.4 24.1 8.8 37 8.4 CALM 0 0 0 0 1011.3 1010.6 0.0
28/09:00pm 24.6 23.2 7.3 33 9.1 WNW 4 11 2 6 1011.3 1010.6 0.0
28/08:30pm 27.5 25.6 7.4 28 10.8 SSW 7 7 4 4 1011.2 1010.5 0.0
28/08:00pm 28.6 26.8 7.8 27 11.3 SSW 7 9 4 5 1011.0 1010.3 0.0
28/07:30pm 29.9 27.5 7.2 24 12.3 SSW 9 11 5 6 1010.8 1010.1 0.0
28/07:00pm 29.7 27.3 7.0 24 12.3 S 9 11 5 6 1010.5 1009.8 0.0
28/06:30pm 30.2 27.6 6.1 22 12.8 SW 9 11 5 6 1010.0 1009.3 0.0
28/06:00pm 32.0 29.4 6.2 20 13.9 SSW 9 13 5 7 1009.7 1009.0 0.0
28/05:30pm 32.5 30.0 6.7 20 14.1 SSW 9 13 5 7 1009.5 1008.7 0.0
28/05:00pm 35.0 32.4 6.3 17 15.8 WSW 9 11 5 6 1009.2 1008.4 0.0
28/04:30pm 36.6 33.6 5.8 15 16.9 SW 11 15 6 8 1008.9 1008.1 0.0
28/04:00pm 37.6 35.2 4.5 13 17.9 W 6 15 3 8 1008.6 1007.8 0.0
28/03:30pm 37.6 35.2 4.5 13 17.9 SSW 6 17 3 9 1008.4 1007.6 0.0
28/03:00pm 37.8 33.8 4.7 13 18.0 WSW 15 20 8 11 1008.3 1007.5 0.0
28/02:30pm 37.8 34.9 4.7 13 18.0 SW 9 15 5 8 1008.3 1007.5 0.0
28/02:00pm 38.0 34.0 4.8 13 18.1 WSW 15 22 8 12 1008.5 1007.7 0.0
28/01:30pm 37.5 33.0 4.4 13 17.9 W 17 26 9 14 1008.7 1007.9 0.0
28/01:00pm 37.7 34.6 5.6 14 17.7 WSW 11 30 6 16 1008.9 1008.1 0.0
28/12:30pm 37.1 32.6 4.1 13 17.7 NNW 17 26 9 14 1009.3 1008.5 0.0
28/12:00pm 36.8 32.2 3.9 13 17.6 WSW 17 28 9 15 1009.7 1009.0 0.0
28/11:30am 36.7 33.1 4.9 14 17.2 SW 13 20 7 11 1010.2 1009.5 0.0
28/11:00am 36.2 33.3 4.5 14 17.0 WNW 9 17 5 9 1010.8 1010.1 0.0
28/10:30am 36.3 32.6 4.6 14 17.0 WNW 13 20 7 11 1011.3 1010.6 0.0
28/10:00am 35.9 32.5 4.2 14 16.9 NW 11 19 6 10 1011.7 1011.0 0.0
28/09:30am 34.8 32.2 6.2 17 15.7 W 9 15 5 8 1012.0 1011.3 0.0
28/09:00am 33.9 31.2 5.4 17 15.3 W 9 13 5 7 1012.0 1011.3 0.0
28/08:30am 32.5 30.7 8.0 22 13.6 NNW 7 11 4 6 1012.0 1011.3 0.0
28/08:00am 30.0 28.3 10.0 29 11.4 NNW 9 11 5 6 1011.9 1011.2 0.0
28/07:30am 27.8 25.7 9.6 32 10.2 NW 11 15 6 8 1011.6 1010.9 0.0
28/07:00am 24.5 22.7 9.6 39 8.2 NNW 9 11 5 6 1011.3 1010.6 0.0
28/06:30am 21.4 19.1 7.6 41 7.2 NW 9 11 5 6 1011.1 1010.4 0.0
28/06:00am 20.9 18.6 5.7 37 7.6 WNW 7 9 4 5 1010.8 1010.1 0.0
28/05:30am 21.0 18.6 5.4 36 7.8 WSW 7 9 4 5 1010.6 1009.9 0.0
28/05:00am 20.7 18.1 6.3 39 7.3 WSW 9 11 5 6 1010.4 1009.7 0.0
28/04:30am 20.2 18.6 6.5 41 6.9 NNW 4 7 2 4 1010.1 1009.4 0.0
28/04:00am 20.4 18.6 5.6 38 7.4 WNW 4 9 2 5 1010.1 1009.4 0.0
28/03:30am 20.8 18.6 6.0 38 7.4 NW 7 11 4 6 1010.1 1009.4 0.0
28/03:00am 20.3 18.0 7.3 43 6.7 NE 9 11 5 6 1009.7 1009.0 0.0
28/02:30am 21.2 18.5 7.4 41 7.1 E 11 15 6 8 1009.6 1008.9 0.0
28/02:00am 20.3 17.2 7.3 43 6.7 ENE 13 20 7 11 1009.7 1009.0 0.0
28/01:30am 23.3 20.7 6.1 33 8.8 SSW 9 11 5 6 1009.5 1008.7 0.0
28/01:00am 21.8 18.8 7.6 40 7.4 SSE 13 13 7 7 1009.8 1009.1 0.0
28/12:30am 22.6 20.2 7.2 37 8.0 SSE 9 15 5 8 1009.9 1009.2 0.0
28/12:00am 23.5 21.6 6.7 34 8.7 NW 6 9 3 5 1010.0 1009.3 0.0
 
Date/Time
WST
Temp
°C
App
Temp
°C
Dew
Point
Rel
Hum
%
Delta-T
°C
Wind Press
QNH
hPa
Press
MSL
hPa
Rain
since 9 am
mm
Dir
 
Spd
km/h
Gust
km/h
Spd
kts
Gust
kts
27/11:30pm 23.2 21.1 6.5 34 8.6 NW 7 9 4 5 1010.0 1009.3 0.0
27/11:00pm 23.2 21.0 6.1 33 8.8 N 7 9 4 5 1010.1 1009.4 0.0
27/10:30pm 23.7 22.9 6.5 33 8.9 CALM 0 0 0 0 1010.3 1009.6 0.0
27/10:00pm 23.3 22.5 6.6 34 8.6 CALM 0 0 0 0 1010.4 1009.7 0.0
27/09:30pm 24.3 21.6 5.6 30 9.5 N 9 11 5 6 1010.4 1009.7 0.0
27/09:00pm 26.4 25.2 4.8 25 11.0 CALM 0 0 0 0 1010.7 1010.0 0.0
27/08:30pm 27.4 24.9 3.8 22 11.9 WSW 6 7 3 4 1010.8 1010.1 0.0
27/08:00pm 27.8 25.2 4.2 22 12.0 WSW 7 9 4 5 1010.7 1010.0 0.0
27/07:30pm 27.8 25.4 4.2 22 12.0 WSW 6 7 3 4 1010.5 1009.8 0.0

Other Formats:

Comma delimited format used in spreadsheet applications
http://www.bom.gov.au/fwo/IDW60801/IDW60801.94206.axf

JavaScript Object Notation format (JSON) in row-major order
http://www.bom.gov.au/fwo/IDW60801/IDW60801.94206.json